Weather History for Tarboro, NC

Change the Weather History Date:

Wednesday, November 7, 2012

  Actual Average Record
Temperature  
Mean Temperature 40 °F -  
Max Temperature 45 °F 65 °F 82 °F (1948)
Min Temperature 36 °F 37 °F 23 °F (1954)
Degree Days  
Heating Degree Days 24    
Moisture  
Dew Point 37 °F    
Average Humidity 83    
Maximum Humidity 91    
Minimum Humidity 65    
Precipitation  
Precipitation 0.00 in - - ()
Sea Level Pressure  
Sea Level Pressure 29.88 in    
Wind  
Wind Speed 6 mph (NNW)    
Max Wind Speed 10 mph    
Max Gust Speed -    
Visibility 10 miles    
Events Rain    
Averages and records for this station are not official NWS values.
T = Trace of Precipitation, MM = Missing Value Source: NWS Daily Summary

Daily Weather History Graph

Daily Weather History Graph

Search for Another Location

Airport:

Trip Planner

Search our weather history database for the weather conditions in past years. The results will help you decide how hot, cold, wet, or windy it might be!

Date:

Astronomy

Nov. 07, 2012 Rise Set
Actual Time 6:38 AM EST 5:08 PM EST
Civil Twilight 6:12 AM EST 5:35 PM EST
Nautical Twilight 5:41 AM EST 6:05 PM EST
Astronomical Twilight 5:11 AM EST 6:35 PM EST
Moon No Moon Rise 1:04 PM EST (11/7)
Length of Visible Light 11h 23m
Length of Day
10h 29m
Last Quarter, 43% of the Moon is Illuminated
Nov 7
Last Quarter
Nov 13
New
Nov 20
First Quarter
Nov 28
Full
Dec 6
Last Quarter

Hourly Weather History & Observations

Time (EST) Temp. Windchill Dew Point Humidity Pressure Visibility Wind Dir Wind Speed Gust Speed Precip Events Conditions
12:15 AM 39.9 °F 35.1 °F 36.7 °F 88% 29.89 in 10.0 mi NNW 6.9 mph - N/A   Light Drizzle
12:35 AM 40.1 °F 34.7 °F 37.0 °F 89% 29.89 in 10.0 mi NNW 8.1 mph - N/A Rain Rain
12:55 AM 40.1 °F 35.3 °F 37.0 °F 89% 29.88 in 10.0 mi NNW 6.9 mph - N/A Rain Light Rain
1:15 AM 39.9 °F 35.1 °F 37.0 °F 89% 29.87 in 10.0 mi NNW 6.9 mph - N/A   Light Drizzle
1:35 AM 39.9 °F 36.7 °F 37.0 °F 89% 29.87 in 10.0 mi NNW 4.6 mph - N/A   Overcast
1:55 AM 40.1 °F 35.3 °F 37.0 °F 89% 29.86 in 10.0 mi NNW 6.9 mph - N/A   Overcast
2:15 AM 40.1 °F 36.1 °F 37.0 °F 89% 29.86 in 10.0 mi NNW 5.8 mph - N/A   Overcast
2:35 AM 40.3 °F 36.3 °F 37.0 °F 88% 29.86 in 10.0 mi NW 5.8 mph - N/A   Overcast
2:55 AM 40.3 °F 37.1 °F 37.0 °F 88% 29.86 in 10.0 mi NW 4.6 mph - N/A   Overcast
3:15 AM 40.5 °F 35.8 °F 37.0 °F 88% 29.85 in 10.0 mi NW 6.9 mph - N/A   Overcast
3:35 AM 40.5 °F 37.3 °F 37.0 °F 88% 29.85 in 10.0 mi NW 4.6 mph - N/A   Overcast
3:55 AM 40.5 °F 36.5 °F 37.0 °F 88% 29.84 in 10.0 mi NNW 5.8 mph - N/A   Overcast
4:15 AM 40.5 °F 36.5 °F 37.0 °F 88% 29.85 in 10.0 mi NNW 5.8 mph - N/A   Overcast
4:35 AM 40.8 °F 35.6 °F 37.0 °F 86% 29.85 in 10.0 mi NNW 8.1 mph - N/A   Overcast
4:55 AM 41.0 °F 35.8 °F 37.4 °F 87% 29.85 in 10.0 mi NNW 8.1 mph - N/A   Overcast
5:15 AM 41.0 °F 38.0 °F 37.4 °F 87% 29.86 in 10.0 mi North 4.6 mph - N/A   Overcast
5:35 AM 41.2 °F 36.6 °F 37.4 °F 86% 29.86 in 10.0 mi North 6.9 mph - N/A   Overcast
5:55 AM 41.2 °F 38.2 °F 37.6 °F 87% 29.86 in 10.0 mi North 4.6 mph - N/A   Overcast
6:15 AM 41.4 °F 38.4 °F 37.6 °F 86% 29.86 in 10.0 mi North 4.6 mph - N/A   Overcast
6:35 AM 41.5 °F 37.8 °F 37.9 °F 87% 29.86 in 10.0 mi North 5.8 mph - N/A   Overcast
7:15 AM 41.5 °F 37.8 °F 37.9 °F 87% 29.87 in 10.0 mi NNW 5.8 mph - N/A   Overcast
7:35 AM 41.5 °F 37.8 °F 37.9 °F 87% 29.88 in 10.0 mi NNW 5.8 mph - N/A   Overcast
7:55 AM 41.5 °F 37.1 °F 37.9 °F 87% 29.88 in 10.0 mi NNW 6.9 mph - N/A   Overcast
8:15 AM 41.5 °F 37.1 °F 37.9 °F 87% 29.88 in 10.0 mi NNW 6.9 mph - N/A   Overcast
8:35 AM 41.9 °F 39.0 °F 37.9 °F 86% 29.87 in 10.0 mi NNW 4.6 mph - N/A   Overcast
8:55 AM 42.3 °F 37.3 °F 37.8 °F 84% 29.87 in 10.0 mi North 8.1 mph - N/A   Overcast
9:15 AM 42.6 °F 37.8 °F 37.6 °F 82% 29.87 in 10.0 mi NNW 8.1 mph - N/A   Overcast
9:35 AM 43.5 °F 38.9 °F 37.6 °F 80% 29.88 in 10.0 mi North 8.1 mph - N/A   Overcast
9:55 AM 43.5 °F 38.9 °F 37.0 °F 78% 29.87 in 10.0 mi NW 8.1 mph - N/A   Overcast
10:15 AM 44.2 °F 40.3 °F 36.9 °F 75% 29.88 in 10.0 mi NNW 6.9 mph - N/A   Overcast
10:35 AM 44.6 °F 40.2 °F 36.3 °F 73% 29.88 in 10.0 mi NNW 8.1 mph - N/A   Overcast
10:55 AM 44.8 °F 39.9 °F 35.4 °F 70% 29.88 in 10.0 mi NNW 9.2 mph - N/A   Overcast
11:15 AM 44.8 °F 41.0 °F 35.4 °F 70% 29.87 in 10.0 mi NW 6.9 mph - N/A   Overcast
11:35 AM 44.6 °F 39.2 °F 35.1 °F 69% 29.87 in 10.0 mi NNW 10.4 mph - N/A   Overcast
11:55 AM 44.8 °F 39.4 °F 34.9 °F 68% 29.85 in 10.0 mi North 10.4 mph - N/A   Light Drizzle
12:15 PM 44.8 °F 41.0 °F 35.1 °F 69% 29.85 in 10.0 mi North 6.9 mph - N/A   Overcast
12:35 PM 45.5 °F 41.8 °F 35.6 °F 68% 29.84 in 10.0 mi NNW 6.9 mph - N/A   Overcast
12:55 PM 45.9 °F 42.9 °F 35.1 °F 66% 29.84 in 10.0 mi North 5.8 mph - N/A   Overcast
1:15 PM 45.9 °F 41.2 °F 34.7 °F 65% 29.84 in 10.0 mi NNW 9.2 mph - N/A   Overcast
1:35 PM 45.7 °F 41.5 °F 34.5 °F 65% 29.84 in 10.0 mi NNW 8.1 mph - N/A   Overcast
1:55 PM 45.3 °F 41.1 °F 35.2 °F 68% 29.84 in 10.0 mi NW 8.1 mph - N/A Rain Light Rain
2:15 PM 43.9 °F 42.3 °F 36.1 °F 74% 29.84 in 10.0 mi NW 3.5 mph - N/A Rain Light Rain
2:35 PM 43.3 °F 40.7 °F 37.6 °F 80% 29.85 in 10.0 mi NW 4.6 mph - N/A Rain Light Rain
2:55 PM 43.2 °F 41.5 °F 37.9 °F 82% 29.85 in 10.0 mi NW 3.5 mph - N/A Rain Light Rain
3:15 PM 43.3 °F - 38.7 °F 84% 29.85 in 10.0 mi Calm Calm - N/A   Light Drizzle
3:35 PM 43.5 °F 41.9 °F 38.7 °F 83% 29.86 in 10.0 mi NW 3.5 mph - N/A   Overcast
3:55 PM 43.5 °F 40.9 °F 37.9 °F 81% 29.86 in 10.0 mi NW 4.6 mph - N/A   Overcast
4:15 PM 43.3 °F 41.7 °F 37.6 °F 80% 29.87 in 10.0 mi NNW 3.5 mph - N/A   Light Drizzle
4:35 PM 43.3 °F 39.2 °F 37.2 °F 79% 29.87 in 10.0 mi NNW 6.9 mph - N/A   Overcast
4:55 PM 43.2 °F 40.5 °F 36.5 °F 77% 29.87 in 10.0 mi NNW 4.6 mph - N/A   Light Drizzle
5:15 PM 42.8 °F 39.3 °F 36.5 °F 78% 29.87 in 10.0 mi NNW 5.8 mph - N/A   Light Drizzle
5:35 PM 42.4 °F 39.6 °F 36.5 °F 79% 29.88 in 10.0 mi NNW 4.6 mph - N/A Rain Light Rain
5:55 PM 42.1 °F 40.2 °F 37.2 °F 83% 29.89 in 10.0 mi NW 3.5 mph - N/A Rain Light Rain
6:15 PM 41.9 °F 39.0 °F 37.9 °F 86% 29.89 in 10.0 mi NW 4.6 mph - N/A Rain Light Rain
6:35 PM 41.7 °F 38.0 °F 38.1 °F 87% 29.90 in 10.0 mi NNW 5.8 mph - N/A Rain Light Rain
6:55 PM 41.5 °F 38.6 °F 38.3 °F 88% 29.90 in 10.0 mi NNW 4.6 mph - N/A   Light Drizzle
7:15 PM 41.4 °F 39.4 °F 38.3 °F 89% 29.90 in 10.0 mi WNW 3.5 mph - N/A Rain Light Rain
7:35 PM 41.5 °F 38.6 °F 38.3 °F 88% 29.90 in 10.0 mi WNW 4.6 mph - N/A   Overcast
7:55 PM 41.5 °F 39.6 °F 38.1 °F 88% 29.90 in 10.0 mi WNW 3.5 mph - N/A   Overcast
8:15 PM 41.7 °F 39.8 °F 37.8 °F 86% 29.91 in 10.0 mi WNW 3.5 mph - N/A   Overcast
8:35 PM 41.5 °F 39.6 °F 37.4 °F 85% 29.91 in 10.0 mi WNW 3.5 mph - N/A   Overcast
8:55 PM 41.0 °F 39.0 °F 37.0 °F 86% 29.91 in 10.0 mi WNW 3.5 mph - N/A   Overcast
9:15 PM 40.3 °F 38.2 °F 36.5 °F 86% 29.92 in 10.0 mi WNW 3.5 mph - N/A   Mostly Cloudy
9:35 PM 39.4 °F 37.2 °F 35.4 °F 86% 29.92 in 10.0 mi West 3.5 mph - N/A   Clear
9:55 PM 38.3 °F 35.9 °F 34.9 °F 87% 29.92 in 10.0 mi WNW 3.5 mph - N/A   Clear
10:15 PM 38.1 °F 35.7 °F 34.5 °F 87% 29.92 in 10.0 mi WNW 3.5 mph - N/A   Clear
10:35 PM 37.0 °F 34.5 °F 33.8 °F 88% 29.92 in 10.0 mi West 3.5 mph - N/A   Clear
10:55 PM 36.3 °F 32.5 °F 33.4 °F 89% 29.92 in 10.0 mi WNW 4.6 mph - N/A   Clear
11:15 PM 36.0 °F 33.3 °F 33.1 °F 89% 29.92 in 10.0 mi WNW 3.5 mph - N/A   Scattered Clouds
11:35 PM 36.1 °F - 33.6 °F 91% 29.93 in 10.0 mi Calm Calm - N/A   Overcast
11:55 PM 36.1 °F - 33.4 °F 90% 29.93 in 10.0 mi Calm Calm - N/A   Overcast